Airport View

Enter AWOS ICAO identifier for current METAR.

ex. KFNL

KBBD 031715Z AUTO VRB06G11KT 10SM CLR 33/11 A3005 RMK AO2

3 Jul 2020 17:33

Frequency: 118.375

Phone: 325-597-9139

Other Area AWOS: KCOM - KBWD - KAQO - KJCT

TAF KBBD 031128Z 0312/0412 18006KT P6SM FEW050 FM031800 17008KT P6SM SCT250